LIMF

Turin/Caselle Airport

Airport
ICAO code
LIMF
IATA Code
TRN
Summary
ICAO Region
EUR
ICAO Territory
Location

Caselle Torinese, Piedmont

Serving
Turin
Elevation
989 ft
Coordinates
45° 11' 51" N , 7° 38' 58" E
KCC
Metar
Observation
LIMF 071750Z 02002KT CAVOK 21/10 Q1022
Station
Torino / Caselle
Date/Time
2022-10-07 17:50:00
Wind direction
20°
Wind speed
02 kts
Lowest cloud amount
clouds and visibility OK
Temperature
21°C
Dew point
10°C
Humidity
49%
QNH
1022 hPa
Weather condition
n/a

International airport serving city of Turin.

Climatology

Humid “subtropical” climate (Köppen climate classification Cfa) - characterized by hot, humid summers and cool winters. Significant amounts of precipitation occur in all seasons in most areas. Winter rainfall (and sometimes snowfall) is associated with large storms that the westerlies steer from west to east. Most summer rainfall occurs during thunderstorms.

Runways

Designator Length Width Surface Rops
18/36 3300 60 ASP Yes/Yes

Airport map

Aerial View

SKYbrary Partners:

Safety knowledge contributed by: